Time;durP1;ratioP1;P1;durP2;ratioP2;P2;SDS_P1;SDS_P2;PMS_P1;PMS_P2;Temp;Humidity;BMP_temperature;BMP_pressure;BME280_temperature;BME280_humidity;BME280_pressure;Samples;Min_cycle;Max_cycle;Signal;HPM_P1;HPM_P2
2022/07/25 00:01:30;;;;;;;20.85;13.38;;;;;;;18.65;100.00;99777.79;1647132;87;21074;-74
2022/07/25 00:03:57;;;;;;;22.70;14.55;;;;;;;18.62;100.00;99779.86;1647406;87;21079;-72
2022/07/25 00:06:24;;;;;;;22.32;15.05;;;;;;;18.59;100.00;99783.61;1647400;87;21068;-73
2022/07/25 00:08:51;;;;;;;23.65;14.45;;;;;;;18.58;100.00;99779.72;1647514;87;21189;-71
2022/07/25 00:11:18;;;;;;;26.17;15.75;;;;;;;18.58;100.00;99781.89;1647433;87;21097;-71
2022/07/25 00:13:45;;;;;;;24.07;15.53;;;;;;;18.56;100.00;99781.16;1647437;85;21157;-70
2022/07/25 00:16:12;;;;;;;27.35;14.98;;;;;;;18.56;100.00;99778.48;1647016;87;21105;-71
2022/07/25 00:18:39;;;;;;;23.15;15.38;;;;;;;18.57;100.00;99785.54;1647634;87;21030;-72
2022/07/25 00:21:07;;;;;;;27.98;16.95;;;;;;;18.58;100.00;99778.38;1647126;87;21136;-71
2022/07/25 00:23:35;;;;;;;22.22;15.08;;;;;;;18.50;100.00;99776.31;1647128;87;21085;-71
2022/07/25 00:26:04;;;;;;;28.95;16.05;;;;;;;18.51;100.00;99780.66;1647168;87;21120;-72
2022/07/25 00:28:31;;;;;;;28.77;16.57;;;;;;;18.51;100.00;99779.33;1647208;87;21081;-73
2022/07/25 00:30:58;;;;;;;25.97;15.98;;;;;;;18.49;100.00;99780.41;1647139;87;21069;-72
2022/07/25 00:33:26;;;;;;;27.27;16.30;;;;;;;18.48;100.00;99786.23;1647405;87;21156;-71
2022/07/25 00:35:52;;;;;;;22.98;16.65;;;;;;;18.45;100.00;99784.66;1647458;87;21100;-71
2022/07/25 00:38:19;;;;;;;23.77;14.40;;;;;;;18.44;100.00;99783.42;1646883;85;21136;-75
2022/07/25 00:40:45;;;;;;;30.20;15.60;;;;;;;18.44;100.00;99788.27;1647100;87;21068;-71
2022/07/25 00:43:12;;;;;;;28.20;17.27;;;;;;;18.44;100.00;99785.60;1647226;87;21052;-72
2022/07/25 00:45:38;;;;;;;31.87;17.40;;;;;;;18.48;100.00;99786.23;1647244;87;21204;-72
2022/07/25 00:48:07;;;;;;;28.87;18.05;;;;;;;18.59;100.00;99784.95;1647171;87;21072;-71
2022/07/25 00:50:35;;;;;;;28.32;16.87;;;;;;;18.45;100.00;99780.66;1647256;87;21049;-73
2022/07/25 00:53:01;;;;;;;27.15;16.60;;;;;;;18.41;100.00;99777.00;1647261;87;21108;-71
2022/07/25 00:55:29;;;;;;;28.17;15.30;;;;;;;18.48;100.00;99778.23;1647472;87;21080;-71
2022/07/25 00:57:55;;;;;;;30.17;17.50;;;;;;;18.42;100.00;99768.02;1647280;87;21210;-71
2022/07/25 01:00:22;;;;;;;25.48;15.93;;;;;;;18.39;100.00;99773.59;1647290;87;21049;-72
2022/07/25 01:02:49;;;;;;;28.50;16.25;;;;;;;18.41;100.00;99777.00;1647455;87;21066;-72
2022/07/25 01:05:15;;;;;;;27.25;15.98;;;;;;;18.39;100.00;99774.93;1647514;87;21109;-71
2022/07/25 01:07:42;;;;;;;25.32;16.67;;;;;;;18.38;100.00;99769.21;1647463;87;21068;-72
2022/07/25 01:10:09;;;;;;;24.23;15.43;;;;;;;18.39;100.00;99775.77;1647362;87;21132;-71
2022/07/25 01:12:51;;;;;;;19.60;14.20;;;;;;;18.37;100.00;99775.52;1647314;87;21112;-70
2022/07/25 01:15:20;;;;;;;25.90;15.15;;;;;;;18.36;100.00;99780.02;1647202;87;21128;-72
2022/07/25 01:17:47;;;;;;;24.10;15.23;;;;;;;18.34;100.00;99774.43;1647426;87;21037;-72
2022/07/25 01:20:20;;;;;;;23.65;14.73;;;;;;;18.35;100.00;99776.12;1647306;87;21053;-71
2022/07/25 01:22:46;;;;;;;25.48;14.70;;;;;;;18.35;100.00;99765.45;1646535;87;21137;-73
2022/07/25 01:25:13;;;;;;;19.50;15.15;;;;;;;18.33;100.00;99771.38;1647141;87;21346;-73
2022/07/25 01:27:41;;;;;;;34.60;14.18;;;;;;;18.28;100.00;99765.06;1645872;86;21089;-70
2022/07/25 01:30:11;;;;;;;22.05;14.15;;;;;;;18.27;100.00;99763.83;1646872;86;21056;-70
2022/07/25 01:32:38;;;;;;;26.23;14.40;;;;;;;18.24;100.00;99768.45;1646303;87;21109;-71
2022/07/25 01:35:06;;;;;;;26.62;14.30;;;;;;;18.22;100.00;99773.05;1646295;87;21762;-69
2022/07/25 01:37:33;;;;;;;18.80;13.00;;;;;;;18.20;100.00;99770.97;1646130;86;21507;-71
2022/07/25 01:40:01;;;;;;;27.62;14.43;;;;;;;18.16;100.00;99775.31;1646068;87;21093;-71
2022/07/25 01:42:27;;;;;;;22.40;14.23;;;;;;;18.12;100.00;99773.34;1645981;87;21585;-70
2022/07/25 01:44:54;;;;;;;18.92;13.60;;;;;;;18.08;100.00;99773.20;1645888;87;21045;-71
2022/07/25 01:47:21;;;;;;;21.93;13.60;;;;;;;18.05;100.00;99776.09;1645693;87;21201;-71
2022/07/25 01:49:48;;;;;;;18.95;13.22;;;;;;;18.04;100.00;99770.41;1645729;87;21049;-71
2022/07/25 01:52:14;;;;;;;19.90;13.40;;;;;;;18.01;100.00;99773.28;1645544;87;21069;-71
2022/07/25 01:54:41;;;;;;;24.80;15.00;;;;;;;18.01;100.00;99770.63;1646794;87;21026;-72
2022/07/25 01:57:08;;;;;;;21.85;13.13;;;;;;;17.99;100.00;99771.21;1647375;87;21108;-72
2022/07/25 01:59:39;;;;;;;18.35;13.10;;;;;;;17.97;100.00;99771.83;1647122;87;22239;-70
2022/07/25 02:02:08;;;;;;;20.27;13.68;;;;;;;17.93;100.00;99770.34;1646978;87;21121;-72
2022/07/25 02:04:36;;;;;;;21.02;12.35;;;;;;;17.90;100.00;99770.55;1646937;87;21086;-72
2022/07/25 02:07:03;;;;;;;17.55;12.78;;;;;;;17.90;100.00;99771.43;1647320;87;21124;-72
2022/07/25 02:09:29;;;;;;;21.65;13.62;;;;;;;17.91;100.00;99777.60;1647557;87;21093;-72
2022/07/25 02:11:57;;;;;;;18.90;13.40;;;;;;;17.88;100.00;99774.69;1647489;85;21278;-72
2022/07/25 02:14:24;;;;;;;20.50;12.98;;;;;;;17.87;100.00;99772.96;1647445;87;21074;-70
2022/07/25 02:16:50;;;;;;;22.35;12.93;;;;;;;17.84;100.00;99776.35;1647211;87;21061;-71
2022/07/25 02:19:18;;;;;;;15.95;12.68;;;;;;;17.81;100.00;99783.59;1647637;87;21610;-71
2022/07/25 02:21:46;;;;;;;20.97;13.22;;;;;;;17.79;100.00;99780.16;1647822;87;21084;-69
2022/07/25 02:24:13;;;;;;;20.05;12.93;;;;;;;17.77;100.00;99780.75;1647559;87;21672;-71
2022/07/25 02:26:40;;;;;;;21.68;12.88;;;;;;;17.77;100.00;99780.75;1647622;87;21045;-72
2022/07/25 02:29:06;;;;;;;18.30;12.60;;;;;;;17.75;100.00;99774.68;1647620;87;21077;-71
2022/07/25 02:31:34;;;;;;;16.87;12.65;;;;;;;17.72;100.00;99768.25;1647469;87;21109;-71
2022/07/25 02:34:01;;;;;;;22.65;13.10;;;;;;;17.70;100.00;99774.17;1647915;87;21545;-71
2022/07/25 02:36:28;;;;;;;20.92;13.55;;;;;;;17.70;100.00;99770.17;1647367;87;21164;-71
2022/07/25 02:38:54;;;;;;;17.85;12.55;;;;;;;17.69;100.00;99772.48;1647433;85;21258;-71
2022/07/25 02:41:21;;;;;;;19.65;12.93;;;;;;;17.69;100.00;99771.15;1647417;87;21033;-70
2022/07/25 02:43:48;;;;;;;18.77;13.13;;;;;;;17.70;100.00;99776.83;1647253;87;21076;-70
2022/07/25 02:46:15;;;;;;;19.75;12.93;;;;;;;17.70;100.00;99778.66;1647323;87;21132;-70
2022/07/25 02:48:42;;;;;;;18.55;13.10;;;;;;;17.70;100.00;99784.82;1647189;87;21225;-72
2022/07/25 02:51:08;;;;;;;19.73;13.58;;;;;;;17.69;100.00;99788.46;1647394;87;21077;-71
2022/07/25 02:53:35;;;;;;;25.27;13.93;;;;;;;17.66;100.00;99788.66;1647320;87;21105;-72
2022/07/25 02:56:01;;;;;;;20.43;13.60;;;;;;;17.65;100.00;99783.47;1647297;87;21137;-71
2022/07/25 02:58:28;;;;;;;17.52;12.53;;;;;;;17.65;100.00;99799.44;1646987;87;21084;-71
2022/07/25 03:00:55;;;;;;;23.52;14.38;;;;;;;17.63;100.00;99795.55;1646943;87;21974;-71
2022/07/25 03:03:22;;;;;;;25.17;13.43;;;;;;;17.61;100.00;99795.64;1646896;87;21077;-72
2022/07/25 03:05:50;;;;;;;19.75;13.62;;;;;;;17.61;100.00;99798.80;1647414;87;21120;-72
2022/07/25 03:08:16;;;;;;;19.87;14.43;;;;;;;17.61;100.00;99801.45;1647248;87;21089;-72
2022/07/25 03:10:44;;;;;;;22.70;14.25;;;;;;;17.61;100.00;99800.12;1647115;87;21063;-72
2022/07/25 03:13:11;;;;;;;26.50;14.90;;;;;;;17.58;100.00;99800.36;1635929;87;21776;-72
2022/07/25 03:15:38;;;;;;;24.43;13.55;;;;;;;17.59;100.00;99810.03;1647415;87;22144;-72
2022/07/25 03:18:05;;;;;;;26.40;14.63;;;;;;;17.59;100.00;99802.05;1647045;87;21534;-72
2022/07/25 03:20:31;;;;;;;23.80;14.47;;;;;;;17.59;100.00;99802.05;1645910;87;21101;-71
2022/07/25 03:22:58;;;;;;;24.95;14.03;;;;;;;17.59;100.00;99800.71;1646100;87;21049;-72
2022/07/25 03:25:24;;;;;;;20.60;13.30;;;;;;;17.59;100.00;99798.05;1646016;87;21565;-73
2022/07/25 03:27:51;;;;;;;21.48;13.50;;;;;;;17.61;100.00;99809.45;1646487;87;21085;-73
2022/07/25 03:30:18;;;;;;;24.07;13.35;;;;;;;17.60;100.00;99799.77;1647042;87;21057;-72
2022/07/25 03:32:45;;;;;;;18.75;13.65;;;;;;;17.61;100.00;99802.79;1647181;86;21364;-71
2022/07/25 03:35:11;;;;;;;20.12;14.28;;;;;;;17.62;100.00;99800.48;1646880;87;22214;-71
2022/07/25 03:37:38;;;;;;;21.40;13.38;;;;;;;17.63;100.00;99800.88;1647335;87;21557;-72
2022/07/25 03:40:06;;;;;;;21.50;15.03;;;;;;;17.64;100.00;99805.71;1655959;85;21141;-73
2022/07/25 03:42:33;;;;;;;18.27;12.15;;;;;;;17.67;100.00;99797.48;1647424;87;21049;-72
2022/07/25 03:45:00;;;;;;;22.65;12.78;;;;;;;17.65;100.00;99794.95;1659195;86;21115;-73
2022/07/25 03:47:27;;;;;;;18.45;12.68;;;;;;;17.66;100.00;99797.98;1647160;86;21029;-73
2022/07/25 03:49:54;;;;;;;19.23;12.25;;;;;;;17.67;100.00;99795.70;1659193;86;21406;-73
2022/07/25 03:52:22;;;;;;;21.05;13.05;;;;;;;17.69;100.00;99801.78;1647322;86;21118;-73
2022/07/25 03:54:48;;;;;;;22.32;12.88;;;;;;;17.70;100.00;99800.80;1640803;86;21735;-71
2022/07/25 03:57:15;;;;;;;16.45;12.33;;;;;;;17.69;100.00;99796.91;1632078;87;21088;-71
2022/07/25 03:59:42;;;;;;;19.00;12.35;;;;;;;17.78;100.00;99809.55;1620885;87;21088;-71
2022/07/25 04:02:08;;;;;;;17.35;13.30;;;;;;;17.82;100.00;99812.41;1632193;87;21156;-72
2022/07/25 04:04:35;;;;;;;18.87;12.40;;;;;;;17.84;100.00;99806.98;1620913;87;21118;-71
2022/07/25 04:07:01;;;;;;;20.17;13.00;;;;;;;17.87;100.00;99814.25;1620695;88;21943;-72
2022/07/25 04:09:28;;;;;;;21.37;12.60;;;;;;;17.88;100.00;99815.12;1621111;87;21118;-71
2022/07/25 04:11:55;;;;;;;18.48;11.85;;;;;;;17.88;100.00;99812.47;1620769;88;21630;-72
2022/07/25 04:14:22;;;;;;;17.65;13.10;;;;;;;17.90;100.00;99810.52;1620701;88;21832;-71
2022/07/25 04:16:48;;;;;;;18.12;11.53;;;;;;;17.91;100.00;99808.23;1632267;87;21058;-72
2022/07/25 04:19:15;;;;;;;28.25;11.93;;;;;;;17.92;100.00;99815.25;1620678;88;21109;-73
2022/07/25 04:21:42;;;;;;;20.92;12.73;;;;;;;17.92;100.00;99817.91;1632162;87;21100;-72
2022/07/25 04:24:08;;;;;;;16.25;10.88;;;;;;;17.92;100.00;99814.80;1639780;86;21168;-72
2022/07/25 04:26:35;;;;;;;15.58;11.33;;;;;;;17.96;100.00;99816.73;1646384;86;21245;-72
2022/07/25 04:29:04;;;;;;;16.52;11.85;;;;;;;17.99;100.00;99813.84;1657787;85;21061;-72
2022/07/25 04:31:31;;;;;;;19.17;11.63;;;;;;;18.09;100.00;99816.70;1646486;86;21121;-73
2022/07/25 04:33:57;;;;;;;19.80;12.05;;;;;;;18.33;100.00;99815.36;1650059;85;21649;-72
2022/07/25 04:36:25;;;;;;;17.35;11.57;;;;;;;18.52;100.00;99821.05;1659598;85;21104;-72
2022/07/25 04:38:52;;;;;;;16.73;10.68;;;;;;;18.65;100.00;99825.80;1656220;86;21129;-72
2022/07/25 04:41:19;;;;;;;17.48;10.98;;;;;;;18.76;100.00;99829.48;1645033;86;21085;-73
2022/07/25 04:43:46;;;;;;;17.00;10.45;;;;;;;18.82;100.00;99830.39;1647083;87;21088;-72
2022/07/25 04:46:12;;;;;;;16.93;11.05;;;;;;;18.86;100.00;99834.05;1646740;86;21069;-72
2022/07/25 04:48:38;;;;;;;18.37;10.68;;;;;;;18.91;100.00;99833.70;1621960;86;21148;-72
2022/07/25 04:51:06;;;;;;;14.87;10.08;;;;;;;18.96;100.00;99828.84;1645410;86;21208;-71
2022/07/25 04:53:33;;;;;;;13.43;9.73;;;;;;;18.98;100.00;99825.58;1645893;86;21033;-72
2022/07/25 04:56:00;;;;;;;13.98;10.28;;;;;;;19.00;100.00;99828.98;1646935;87;21037;-71
2022/07/25 04:58:26;;;;;;;15.95;10.35;;;;;;;19.03;100.00;99826.07;1643572;85;21598;-72
2022/07/25 05:00:53;;;;;;;15.13;9.80;;;;;;;19.11;100.00;99821.95;1646080;86;21557;-73
2022/07/25 05:03:20;;;;;;;11.93;9.23;;;;;;;19.18;100.00;99830.69;1645708;86;21502;-74
2022/07/25 05:05:48;;;;;;;14.15;10.05;;;;;;;19.27;100.00;99825.13;1645321;87;21078;-72
2022/07/25 05:08:15;;;;;;;16.52;9.88;;;;;;;19.35;100.00;99836.07;1646395;87;21069;-72
2022/07/25 05:10:42;;;;;;;12.93;9.63;;;;;;;19.42;100.00;99829.77;1645706;85;21609;-73
2022/07/25 05:13:09;;;;;;;14.45;10.05;;;;;;;19.48;100.00;99827.44;1654718;85;21030;-72
2022/07/25 05:15:35;;;;;;;16.97;10.58;;;;;;;19.55;100.00;99821.62;1646379;87;21156;-74
2022/07/25 05:18:02;;;;;;;15.48;10.88;;;;;;;19.64;100.00;99831.58;1665856;85;21061;-73
2022/07/25 05:20:29;;;;;;;19.25;10.55;;;;;;;19.68;100.00;99827.70;1646889;87;21100;-72
2022/07/25 05:22:57;;;;;;;14.18;10.35;;;;;;;19.69;100.00;99832.95;1646984;87;21080;-72
2022/07/25 05:25:26;;;;;;;16.87;10.03;;;;;;;19.76;100.00;99828.44;1647178;87;21570;-72
2022/07/25 05:27:54;;;;;;;16.48;9.80;;;;;;;19.83;100.00;99825.17;1646534;87;21584;-72
2022/07/25 05:30:23;;;;;;;12.13;9.73;;;;;;;19.89;100.00;99824.66;1628503;87;21064;-72
2022/07/25 05:32:49;;;;;;;17.55;10.15;;;;;;;20.01;100.00;99827.31;1645958;87;21051;-74
2022/07/25 05:35:17;;;;;;;14.20;10.08;;;;;;;20.11;100.00;99824.27;1644821;87;21110;-73
2022/07/25 05:37:44;;;;;;;16.45;9.08;;;;;;;20.23;100.00;99822.41;1645824;87;21104;-73
2022/07/25 05:40:11;;;;;;;14.30;8.78;;;;;;;20.29;100.00;99817.41;1653050;85;21697;-72
2022/07/25 05:42:38;;;;;;;15.10;9.38;;;;;;;20.42;100.00;99829.75;1659055;86;21080;-73
2022/07/25 05:45:07;;;;;;;16.07;9.13;;;;;;;20.56;100.00;99820.13;1659189;86;21059;-74
2022/07/25 05:47:34;;;;;;;14.68;8.65;;;;;;;20.71;100.00;99820.18;1677206;85;21104;-74
2022/07/25 05:50:01;;;;;;;14.35;8.75;;;;;;;20.80;100.00;99815.02;1654007;85;21518;-73
2022/07/25 05:52:28;;;;;;;17.12;9.10;;;;;;;20.84;100.00;99816.45;1670962;85;21170;-74
2022/07/25 05:54:54;;;;;;;14.13;9.28;;;;;;;20.91;100.00;99814.95;1659032;86;21117;-74
2022/07/25 05:57:32;;;;;;;;;;;;;;;;;;;;;
2022/07/25 06:00:31;;;;;;;19.35;10.28;;;;;;;21.12;100.00;99819.83;1801473;79;22548;-74
2022/07/25 06:02:59;;;;;;;13.62;9.83;;;;;;;21.11;100.00;99816.77;1778250;80;21022;-74
2022/07/25 06:05:26;;;;;;;19.98;11.18;;;;;;;21.10;100.00;99820.45;1786963;80;21136;-73
2022/07/25 06:07:53;;;;;;;16.57;10.78;;;;;;;21.19;100.00;99825.97;1775290;80;21482;-73
2022/07/25 06:10:20;;;;;;;17.70;9.33;;;;;;;21.18;100.00;99826.97;1761633;80;21056;-73
2022/07/25 06:12:46;;;;;;;15.10;9.93;;;;;;;21.21;100.00;99819.53;1765521;80;20926;-74
2022/07/25 06:15:15;;;;;;;14.28;9.85;;;;;;;21.26;100.00;99818.63;1780291;80;20957;-75
2022/07/25 06:17:41;;;;;;;12.60;9.68;;;;;;;21.22;100.00;99815.02;1776642;78;21208;-72
2022/07/25 06:20:09;;;;;;;13.75;9.78;;;;;;;21.35;100.00;99812.98;1773843;80;21580;-69
2022/07/25 06:22:37;;;;;;;18.17;9.70;;;;;;;21.49;100.00;99815.32;1777384;80;20938;-70
2022/07/25 06:25:04;;;;;;;11.50;8.95;;;;;;;21.77;100.00;99815.06;1779924;78;21088;-71
2022/07/25 06:27:32;;;;;;;13.53;8.58;;;;;;;22.13;100.00;99815.91;1819421;78;21490;-71
2022/07/25 06:29:59;;;;;;;14.80;8.60;;;;;;;22.49;99.07;99813.59;1699137;81;21681;-73
2022/07/25 06:32:25;;;;;;;12.47;9.30;;;;;;;22.73;96.56;99815.83;1713945;83;21093;-71
2022/07/25 06:34:53;;;;;;;12.75;8.83;;;;;;;22.86;94.19;99815.55;1770241;80;21015;-70
2022/07/25 06:37:20;;;;;;;11.60;8.25;;;;;;;22.78;93.36;99811.75;1742140;80;21625;-72
2022/07/25 06:39:48;;;;;;;13.72;8.08;;;;;;;22.74;93.56;99810.33;1752538;81;21081;-72
2022/07/25 06:42:15;;;;;;;14.13;7.90;;;;;;;22.88;92.88;99810.38;1724670;82;21903;-72
2022/07/25 06:44:41;;;;;;;12.53;8.13;;;;;;;23.32;92.33;99808.55;1716482;83;21486;-71
2022/07/25 06:47:11;;;;;;;10.78;7.65;;;;;;;23.71;89.78;99798.98;1702318;84;21173;-71
2022/07/25 06:49:40;;;;;;;11.88;8.48;;;;;;;24.02;87.28;99801.73;1711241;81;21096;-72
2022/07/25 06:52:07;;;;;;;10.70;6.87;;;;;;;24.37;86.14;99801.41;1707162;83;21004;-71
2022/07/25 06:54:34;;;;;;;11.35;6.22;;;;;;;24.65;83.05;99804.88;1717837;83;21918;-70
2022/07/25 06:57:01;;;;;;;15.85;7.40;;;;;;;24.84;81.91;99807.89;1717527;82;21078;-71
2022/07/25 06:59:28;;;;;;;10.95;6.83;;;;;;;24.99;81.58;99807.34;1709742;83;21608;-71
2022/07/25 07:01:54;;;;;;;10.08;6.37;;;;;;;25.35;78.84;99800.00;1724202;83;21064;-71
2022/07/25 07:04:21;;;;;;;8.50;6.60;;;;;;;25.51;78.69;99799.23;1717742;83;21033;-72
2022/07/25 07:06:48;;;;;;;11.85;6.30;;;;;;;25.61;77.28;99804.02;1712505;83;21207;-71
2022/07/25 07:09:14;;;;;;;8.73;6.28;;;;;;;25.63;75.95;99806.53;1707688;83;21092;-72
2022/07/25 07:11:41;;;;;;;9.90;5.83;;;;;;;25.48;76.19;99809.84;1694464;84;21116;-71
2022/07/25 07:14:09;;;;;;;7.28;6.03;;;;;;;25.37;77.39;99807.42;1702787;83;21065;-71
2022/07/25 07:16:40;;;;;;;9.00;5.47;;;;;;;25.42;76.45;99809.16;1722372;83;21061;-70
2022/07/25 07:19:05;;;;;;;6.90;5.28;;;;;;;25.39;75.32;99800.54;1722588;83;21174;-71
2022/07/25 07:21:32;;;;;;;8.75;5.53;;;;;;;25.51;75.57;99793.84;1723176;83;21025;-71
2022/07/25 07:23:59;;;;;;;8.30;5.40;;;;;;;25.60;73.44;99802.31;1723672;83;21014;-71
2022/07/25 07:26:26;;;;;;;6.60;5.20;;;;;;;25.61;73.39;99807.23;1723434;83;21064;-71
2022/07/25 07:28:53;;;;;;;6.25;5.28;;;;;;;25.59;72.59;99806.55;1723468;83;21096;-70
2022/07/25 07:31:21;;;;;;;13.40;5.10;;;;;;;25.62;71.55;99800.81;1723436;83;21256;-71
2022/07/25 07:33:47;;;;;;;10.98;5.10;;;;;;;25.41;71.44;99801.23;1723683;83;21057;-72
2022/07/25 07:36:14;;;;;;;11.00;5.15;;;;;;;25.51;73.01;99802.81;1723518;83;21037;-69
2022/07/25 07:38:43;;;;;;;6.83;4.72;;;;;;;25.93;73.00;99793.05;1723806;83;21541;-70
2022/07/25 07:41:10;;;;;;;8.18;5.00;;;;;;;26.12;70.91;99795.45;1723597;83;21095;-73
2022/07/25 07:43:37;;;;;;;8.75;4.42;;;;;;;26.10;70.87;99796.11;1723428;83;21221;-72
2022/07/25 07:46:04;;;;;;;12.65;4.90;;;;;;;26.40;70.91;99799.72;1723404;83;21060;-72
2022/07/25 07:48:31;;;;;;;9.03;4.60;;;;;;;26.79;68.64;99793.17;1723600;83;21105;-72
2022/07/25 07:51:00;;;;;;;5.70;4.42;;;;;;;27.03;64.78;99792.80;1723617;83;21124;-71
2022/07/25 07:56:14;;;;;;;9.75;4.42;;;;;;;27.29;58.75;99796.16;1694195;84;21067;-72
2022/07/25 07:58:42;;;;;;;5.22;3.92;;;;;;;27.57;59.68;99785.75;1694151;84;21091;-70
2022/07/25 08:01:08;;;;;;;5.25;4.40;;;;;;;27.73;58.29;99790.77;1699849;83;21057;-72
2022/07/25 08:03:35;;;;;;;6.83;4.03;;;;;;;27.75;57.70;99796.33;1699936;84;21066;-71
2022/07/25 08:06:02;;;;;;;7.78;4.60;;;;;;;27.47;57.68;99800.00;1700097;83;21072;-71
2022/07/25 08:08:30;;;;;;;9.58;3.87;;;;;;;27.13;58.17;99804.28;1700086;83;21037;-70
2022/07/25 08:10:57;;;;;;;6.65;3.45;;;;;;;27.00;58.24;99797.53;1700339;84;21065;-71
2022/07/25 08:13:28;;;;;;;6.72;4.03;;;;;;;27.23;58.99;99795.50;1700027;83;21060;-71
2022/07/25 08:15:58;;;;;;;8.85;4.00;;;;;;;27.67;58.10;99792.81;1699926;83;21065;-71
2022/07/25 08:18:26;;;;;;;8.13;3.92;;;;;;;28.02;53.51;99791.48;1712473;83;21057;-71
2022/07/25 08:20:54;;;;;;;6.33;3.67;;;;;;;28.26;53.36;99785.59;1701183;82;21517;-72
2022/07/25 08:23:21;;;;;;;4.92;3.67;;;;;;;28.42;50.65;99799.02;1699798;83;21109;-71
2022/07/25 08:25:52;;;;;;;6.55;3.80;;;;;;;28.21;50.39;99796.97;1699937;84;21069;-71
2022/07/25 08:28:19;;;;;;;4.58;3.70;;;;;;;28.14;51.51;99792.77;1700168;83;21112;-71
2022/07/25 08:30:45;;;;;;;5.67;3.52;;;;;;;28.33;50.85;99798.74;1712521;83;21139;-71
2022/07/25 08:33:14;;;;;;;5.78;3.22;;;;;;;28.64;49.96;99788.72;1711595;83;21167;-72
2022/07/25 08:35:47;;;;;;;6.42;3.80;;;;;;;28.88;48.51;99792.23;1699903;83;21500;-69
2022/07/25 08:38:13;;;;;;;3.37;2.98;;;;;;;28.94;48.15;99794.21;1700011;83;21044;-72
2022/07/25 08:40:42;;;;;;;6.80;3.45;;;;;;;29.24;47.77;99794.25;1699924;83;21606;-71
2022/07/25 08:43:13;;;;;;;7.80;3.75;;;;;;;29.39;46.20;99789.69;1709625;83;21049;-71
2022/07/25 08:45:51;;;;;;;4.97;3.50;;;;;;;29.48;47.35;99786.37;1709467;82;21243;-72
2022/07/25 08:48:20;;;;;;;4.78;3.55;;;;;;;29.68;46.29;99786.67;1709664;83;21078;-71
2022/07/25 08:50:48;;;;;;;4.58;3.00;;;;;;;29.83;46.43;99786.11;1729103;83;21093;-71
2022/07/25 08:53:18;;;;;;;6.50;3.02;;;;;;;29.81;44.66;99779.19;1699792;83;21555;-71
2022/07/25 08:55:46;;;;;;;5.78;3.27;;;;;;;29.63;45.30;99789.05;1704057;83;21542;-73
2022/07/25 08:58:15;;;;;;;4.47;3.22;;;;;;;29.53;45.18;99785.80;1704899;83;21859;-73
2022/07/25 09:00:41;;;;;;;4.35;3.33;;;;;;;29.56;45.10;99782.70;1691161;83;21070;-73
2022/07/25 09:03:08;;;;;;;4.28;3.33;;;;;;;29.58;45.56;99782.00;1702499;83;21054;-72
2022/07/25 09:05:36;;;;;;;8.90;3.10;;;;;;;29.80;43.80;99781.08;1738962;80;21099;-72
2022/07/25 09:08:10;;;;;;;8.20;4.87;;;;;;;29.77;42.86;99780.11;1758661;80;21044;-72
2022/07/25 09:10:40;;;;;;;13.48;7.67;;;;;;;29.59;42.57;99789.97;1762891;80;21103;-72
2022/07/25 09:13:15;;;;;;;19.48;10.00;;;;;;;29.34;43.47;99792.12;1690055;82;21033;-70
2022/07/25 09:15:48;;;;;;;16.27;7.85;;;;;;;29.19;44.19;99789.39;1757285;80;21040;-72
2022/07/25 09:18:17;;;;;;;12.50;6.30;;;;;;;29.22;44.38;99778.71;1758830;80;21477;-74
2022/07/25 09:20:49;;;;;;;19.23;10.78;;;;;;;29.44;44.65;99773.68;1758058;80;21612;-71
2022/07/25 09:23:36;;;;;;;5.55;3.67;;;;;;;29.63;44.27;99765.99;1755206;80;21829;-71
2022/07/25 09:26:07;;;;;;;6.17;3.35;;;;;;;29.66;43.87;99771.06;1756132;80;21076;-70
2022/07/25 09:28:43;;;;;;;4.75;3.30;;;;;;;29.42;44.17;99775.73;1758177;80;21154;-71
2022/07/25 09:31:11;;;;;;;7.20;3.42;;;;;;;29.13;43.61;99775.77;1757929;80;21048;-70
2022/07/25 09:33:48;;;;;;;5.08;3.35;;;;;;;28.72;43.93;99773.41;1755445;79;21040;-72
2022/07/25 09:36:15;;;;;;;17.15;9.75;;;;;;;28.45;44.32;99774.27;1756744;80;21874;-71
2022/07/25 09:38:54;;;;;;;18.80;8.88;;;;;;;28.53;44.81;99766.13;1759189;80;21571;-72
2022/07/25 09:41:21;;;;;;;9.88;6.17;;;;;;;28.73;44.69;99769.66;1690975;82;21065;-73
2022/07/25 09:43:48;;;;;;;6.85;5.00;;;;;;;29.02;44.08;99758.88;1756374;79;21040;-71
2022/07/25 09:46:15;;;;;;;21.95;11.43;;;;;;;29.12;43.45;99761.34;1755003;79;21033;-72
2022/07/25 09:48:43;;;;;;;9.20;6.40;;;;;;;29.04;43.75;99769.02;1749730;80;21513;-71
2022/07/25 09:51:10;;;;;;;6.30;4.47;;;;;;;29.00;42.75;99766.34;1757636;80;21053;-71
2022/07/25 09:53:36;;;;;;;6.37;3.35;;;;;;;29.24;42.24;99761.72;1744471;79;21065;-71
2022/07/25 09:56:03;;;;;;;5.05;3.12;;;;;;;29.48;41.18;99755.17;1755100;79;21076;-74
2022/07/25 09:58:30;;;;;;;3.95;2.98;;;;;;;29.41;41.51;99764.58;1746840;79;22044;-70
2022/07/25 10:01:04;;;;;;;5.53;2.85;;;;;;;29.22;41.93;99769.22;1709151;82;21240;-72
2022/07/25 10:04:22;;;;;;;4.58;3.10;;;;;;;29.20;43.06;99768.56;1735347;82;21092;-72
2022/07/25 10:07:05;;;;;;;11.88;6.65;;;;;;;29.33;42.69;99766.02;1686296;84;21125;-71
2022/07/25 10:09:31;;;;;;;11.33;5.95;;;;;;;29.41;42.31;99749.66;1676848;84;21225;-72
2022/07/25 10:12:06;;;;;;;13.88;7.35;;;;;;;29.45;41.80;99761.82;1700826;83;21046;-71
2022/07/25 10:14:34;;;;;;;6.28;4.40;;;;;;;29.41;42.40;99764.58;1700401;83;21554;-71
2022/07/25 10:17:02;;;;;;;4.70;3.40;;;;;;;29.54;40.94;99758.98;1697843;82;21589;-72
2022/07/25 10:19:45;;;;;;;5.65;2.85;;;;;;;29.83;40.98;99756.25;1699084;83;22269;-71
2022/07/25 10:22:12;;;;;;;4.85;3.10;;;;;;;29.82;40.66;99760.02;1698281;83;21120;-71
2022/07/25 10:24:45;;;;;;;5.17;2.90;;;;;;;29.85;40.85;99752.84;1703012;83;21431;-73
2022/07/25 10:27:15;;;;;;;4.37;2.50;;;;;;;29.96;39.18;99752.03;1708154;83;21216;-72
2022/07/25 10:29:41;;;;;;;6.25;3.72;;;;;;;30.15;39.59;99755.98;1715628;82;22156;-70
2022/07/25 10:32:13;;;;;;;6.55;4.40;;;;;;;30.51;39.50;99753.23;1701839;83;21628;-70
2022/07/25 10:34:39;;;;;;;7.92;4.90;;;;;;;30.81;39.06;99736.75;1704254;83;21104;-73
2022/07/25 10:37:14;;;;;;;6.37;2.90;;;;;;;31.23;37.02;99741.75;1700414;83;21092;-71
2022/07/25 10:39:44;;;;;;;7.70;2.92;;;;;;;31.42;36.88;99739.67;1689242;83;21186;-72
2022/07/25 10:42:14;;;;;;;4.53;3.08;;;;;;;31.42;36.88;99739.67;1683533;84;21116;-72
2022/07/25 10:44:44;;;;;;;5.30;2.62;;;;;;;31.46;36.55;99731.43;1709471;83;21076;-71
2022/07/25 10:47:13;;;;;;;6.00;3.47;;;;;;;31.56;35.84;99730.55;1713847;82;21096;-71
2022/07/25 10:49:42;;;;;;;4.58;2.80;;;;;;;31.55;35.56;99738.38;1703637;83;21120;-72
2022/07/25 10:52:17;;;;;;;4.10;2.50;;;;;;;31.52;35.36;99731.16;1711063;83;21149;-73
2022/07/25 10:54:53;;;;;;;5.75;2.70;;;;;;;31.40;35.55;99737.63;1723994;83;21116;-72
2022/07/25 10:57:19;;;;;;;3.12;2.50;;;;;;;31.49;34.73;99732.90;1717814;82;21088;-71
2022/07/25 10:59:46;;;;;;;5.80;2.55;;;;;;;31.61;34.45;99729.07;1705971;83;21601;-71
2022/07/25 11:02:16;;;;;;;8.45;2.92;;;;;;;31.71;35.15;99724.94;1739620;82;21112;-73
2022/07/25 11:04:45;;;;;;;5.92;2.60;;;;;;;31.59;35.30;99731.16;1729946;82;21819;-72
2022/07/25 11:07:16;;;;;;;4.33;3.40;;;;;;;31.27;35.01;99728.91;1720498;82;22049;-72
2022/07/25 11:09:43;;;;;;;4.25;2.70;;;;;;;30.73;36.71;99729.56;1721597;82;21062;-70
2022/07/25 11:12:17;;;;;;;6.10;3.10;;;;;;;30.46;37.31;99732.58;1714728;82;21078;-71
2022/07/25 11:14:43;;;;;;;8.83;3.67;;;;;;;30.41;37.36;99733.69;1721409;82;21532;-71
2022/07/25 11:17:23;;;;;;;5.78;3.52;;;;;;;30.65;36.96;99730.56;1729331;82;21167;-72
2022/07/25 11:19:59;;;;;;;4.62;2.90;;;;;;;31.02;36.62;99722.28;1717518;82;21086;-72
2022/07/25 11:22:27;;;;;;;5.35;2.72;;;;;;;31.15;35.58;99730.00;1723636;82;21093;-71
2022/07/25 11:24:53;;;;;;;3.90;3.05;;;;;;;31.33;34.90;99724.52;1721567;82;21038;-72
2022/07/25 11:27:22;;;;;;;3.58;2.77;;;;;;;31.42;35.64;99725.23;1717560;82;21092;-72
2022/07/25 11:29:49;;;;;;;3.85;2.75;;;;;;;31.50;34.78;99717.74;1715910;82;21121;-72